sensor_id;sensor_type;location;lat;lon;timestamp;temperature;humidity
9564;DHT22;4820;50.870;4.702;2023-05-07T00:01:28;16.10;99.90
9564;DHT22;4820;50.870;4.702;2023-05-07T00:03:53;16.10;99.90
9564;DHT22;4820;50.870;4.702;2023-05-07T00:06:19;16.10;99.90
9564;DHT22;4820;50.870;4.702;2023-05-07T00:08:45;16.10;99.90
9564;DHT22;4820;50.870;4.702;2023-05-07T00:11:10;16.00;99.90
9564;DHT22;4820;50.870;4.702;2023-05-07T00:13:36;16.00;99.90
9564;DHT22;4820;50.870;4.702;2023-05-07T00:16:03;16.00;99.90
9564;DHT22;4820;50.870;4.702;2023-05-07T00:18:28;16.00;99.90
9564;DHT22;4820;50.870;4.702;2023-05-07T00:20:54;16.00;99.90
9564;DHT22;4820;50.870;4.702;2023-05-07T00:23:20;16.00;99.90
9564;DHT22;4820;50.870;4.702;2023-05-07T00:25:45;15.90;99.90
9564;DHT22;4820;50.870;4.702;2023-05-07T00:28:11;15.90;99.90
9564;DHT22;4820;50.870;4.702;2023-05-07T00:30:37;16.00;99.90
9564;DHT22;4820;50.870;4.702;2023-05-07T00:33:02;16.00;99.90
9564;DHT22;4820;50.870;4.702;2023-05-07T00:35:29;15.90;99.90
9564;DHT22;4820;50.870;4.702;2023-05-07T00:37:55;15.90;99.90
9564;DHT22;4820;50.870;4.702;2023-05-07T00:40:21;15.80;99.90
9564;DHT22;4820;50.870;4.702;2023-05-07T00:42:47;15.80;99.90
9564;DHT22;4820;50.870;4.702;2023-05-07T00:45:14;15.80;99.90
9564;DHT22;4820;50.870;4.702;2023-05-07T00:47:40;15.70;99.90
9564;DHT22;4820;50.870;4.702;2023-05-07T00:50:08;15.60;99.90
9564;DHT22;4820;50.870;4.702;2023-05-07T00:52:35;15.60;99.90
9564;DHT22;4820;50.870;4.702;2023-05-07T00:55:06;15.60;99.90
9564;DHT22;4820;50.870;4.702;2023-05-07T00:57:36;15.70;99.90
9564;DHT22;4820;50.870;4.702;2023-05-07T01:00:07;15.70;99.90
9564;DHT22;4820;50.870;4.702;2023-05-07T01:02:35;15.60;99.90
9564;DHT22;4820;50.870;4.702;2023-05-07T01:05:02;15.60;99.90
9564;DHT22;4820;50.870;4.702;2023-05-07T01:07:29;15.70;99.90
9564;DHT22;4820;50.870;4.702;2023-05-07T01:09:56;15.70;99.90
9564;DHT22;4820;50.870;4.702;2023-05-07T01:12:22;15.80;99.90
9564;DHT22;4820;50.870;4.702;2023-05-07T01:14:48;15.90;99.90
9564;DHT22;4820;50.870;4.702;2023-05-07T01:17:17;15.90;99.90
9564;DHT22;4820;50.870;4.702;2023-05-07T01:19:43;15.90;99.90
9564;DHT22;4820;50.870;4.702;2023-05-07T01:22:10;15.90;99.90
9564;DHT22;4820;50.870;4.702;2023-05-07T01:24:37;15.90;99.90
9564;DHT22;4820;50.870;4.702;2023-05-07T01:27:03;16.00;99.90
9564;DHT22;4820;50.870;4.702;2023-05-07T01:29:29;15.90;99.90
9564;DHT22;4820;50.870;4.702;2023-05-07T01:32:00;15.90;99.90
9564;DHT22;4820;50.870;4.702;2023-05-07T01:34:28;15.90;99.90
9564;DHT22;4820;50.870;4.702;2023-05-07T01:36:56;15.90;99.90
9564;DHT22;4820;50.870;4.702;2023-05-07T01:39:27;15.90;99.90
9564;DHT22;4820;50.870;4.702;2023-05-07T01:41:55;15.80;99.90
9564;DHT22;4820;50.870;4.702;2023-05-07T01:44:22;15.70;99.90
9564;DHT22;4820;50.870;4.702;2023-05-07T01:46:48;15.70;99.90
9564;DHT22;4820;50.870;4.702;2023-05-07T01:49:15;15.80;99.90
9564;DHT22;4820;50.870;4.702;2023-05-07T01:51:41;15.80;99.90
9564;DHT22;4820;50.870;4.702;2023-05-07T01:54:08;15.80;99.90
9564;DHT22;4820;50.870;4.702;2023-05-07T01:56:33;15.80;99.90
9564;DHT22;4820;50.870;4.702;2023-05-07T01:58:59;15.80;99.90
9564;DHT22;4820;50.870;4.702;2023-05-07T02:01:25;15.80;99.90
9564;DHT22;4820;50.870;4.702;2023-05-07T02:03:51;15.90;99.90
9564;DHT22;4820;50.870;4.702;2023-05-07T02:06:16;15.90;99.90
9564;DHT22;4820;50.870;4.702;2023-05-07T02:08:42;15.80;99.90
9564;DHT22;4820;50.870;4.702;2023-05-07T02:11:08;15.80;99.90
9564;DHT22;4820;50.870;4.702;2023-05-07T02:13:34;15.70;99.90
9564;DHT22;4820;50.870;4.702;2023-05-07T02:16:00;15.60;99.90
9564;DHT22;4820;50.870;4.702;2023-05-07T02:18:26;15.60;99.90
9564;DHT22;4820;50.870;4.702;2023-05-07T02:20:52;15.70;99.90
9564;DHT22;4820;50.870;4.702;2023-05-07T02:23:17;15.70;99.90
9564;DHT22;4820;50.870;4.702;2023-05-07T02:25:43;15.80;99.90
9564;DHT22;4820;50.870;4.702;2023-05-07T02:28:09;15.80;99.90
9564;DHT22;4820;50.870;4.702;2023-05-07T02:30:35;15.80;99.90
9564;DHT22;4820;50.870;4.702;2023-05-07T02:33:02;15.70;99.90
9564;DHT22;4820;50.870;4.702;2023-05-07T02:35:28;15.70;99.90
9564;DHT22;4820;50.870;4.702;2023-05-07T02:37:53;15.60;99.90
9564;DHT22;4820;50.870;4.702;2023-05-07T02:40:19;15.60;99.90
9564;DHT22;4820;50.870;4.702;2023-05-07T02:42:45;15.60;99.90
9564;DHT22;4820;50.870;4.702;2023-05-07T02:45:11;15.70;99.90
9564;DHT22;4820;50.870;4.702;2023-05-07T02:47:36;15.70;99.90
9564;DHT22;4820;50.870;4.702;2023-05-07T02:50:02;15.80;99.90
9564;DHT22;4820;50.870;4.702;2023-05-07T02:52:28;15.80;99.90
9564;DHT22;4820;50.870;4.702;2023-05-07T02:54:54;15.90;99.90
9564;DHT22;4820;50.870;4.702;2023-05-07T02:57:20;15.90;99.90
9564;DHT22;4820;50.870;4.702;2023-05-07T02:59:46;15.80;99.90
9564;DHT22;4820;50.870;4.702;2023-05-07T03:02:11;15.80;99.90
9564;DHT22;4820;50.870;4.702;2023-05-07T03:04:38;15.80;99.90
9564;DHT22;4820;50.870;4.702;2023-05-07T03:07:04;15.80;99.90
9564;DHT22;4820;50.870;4.702;2023-05-07T03:09:29;15.70;99.90
9564;DHT22;4820;50.870;4.702;2023-05-07T03:11:56;15.70;99.90
9564;DHT22;4820;50.870;4.702;2023-05-07T03:14:22;15.60;99.90
9564;DHT22;4820;50.870;4.702;2023-05-07T03:16:48;15.60;99.90
9564;DHT22;4820;50.870;4.702;2023-05-07T03:19:14;15.60;99.90
9564;DHT22;4820;50.870;4.702;2023-05-07T03:21:40;15.60;99.90
9564;DHT22;4820;50.870;4.702;2023-05-07T03:24:05;15.60;99.90
9564;DHT22;4820;50.870;4.702;2023-05-07T03:26:31;15.60;99.90
9564;DHT22;4820;50.870;4.702;2023-05-07T03:28:57;15.60;99.90
9564;DHT22;4820;50.870;4.702;2023-05-07T03:31:22;15.60;99.90
9564;DHT22;4820;50.870;4.702;2023-05-07T03:33:55;15.60;99.90
9564;DHT22;4820;50.870;4.702;2023-05-07T03:36:21;15.60;99.90
9564;DHT22;4820;50.870;4.702;2023-05-07T03:38:48;15.60;99.90
9564;DHT22;4820;50.870;4.702;2023-05-07T03:41:14;15.60;99.90
9564;DHT22;4820;50.870;4.702;2023-05-07T03:43:40;15.60;99.90
9564;DHT22;4820;50.870;4.702;2023-05-07T03:46:05;15.50;99.90
9564;DHT22;4820;50.870;4.702;2023-05-07T03:48:31;15.50;99.90
9564;DHT22;4820;50.870;4.702;2023-05-07T03:51:00;15.60;99.90
9564;DHT22;4820;50.870;4.702;2023-05-07T03:53:25;15.50;99.90
9564;DHT22;4820;50.870;4.702;2023-05-07T03:55:51;15.60;99.90
9564;DHT22;4820;50.870;4.702;2023-05-07T03:58:17;15.60;99.90
9564;DHT22;4820;50.870;4.702;2023-05-07T04:00:42;15.60;99.90
9564;DHT22;4820;50.870;4.702;2023-05-07T04:03:08;15.60;99.90
9564;DHT22;4820;50.870;4.702;2023-05-07T04:05:34;15.60;99.90
9564;DHT22;4820;50.870;4.702;2023-05-07T04:08:00;15.50;99.90
9564;DHT22;4820;50.870;4.702;2023-05-07T04:10:26;15.50;99.90
9564;DHT22;4820;50.870;4.702;2023-05-07T04:12:53;15.60;99.90
9564;DHT22;4820;50.870;4.702;2023-05-07T04:15:19;15.50;99.90
9564;DHT22;4820;50.870;4.702;2023-05-07T04:17:45;15.50;99.90
9564;DHT22;4820;50.870;4.702;2023-05-07T04:20:14;15.60;99.90
9564;DHT22;4820;50.870;4.702;2023-05-07T04:22:41;15.50;99.90
9564;DHT22;4820;50.870;4.702;2023-05-07T04:25:07;15.50;99.90
9564;DHT22;4820;50.870;4.702;2023-05-07T04:27:34;15.50;99.90
9564;DHT22;4820;50.870;4.702;2023-05-07T04:30:01;15.50;99.90
9564;DHT22;4820;50.870;4.702;2023-05-07T04:32:28;15.50;99.90
9564;DHT22;4820;50.870;4.702;2023-05-07T04:34:55;15.60;99.90
9564;DHT22;4820;50.870;4.702;2023-05-07T04:37:21;15.60;99.90
9564;DHT22;4820;50.870;4.702;2023-05-07T04:39:47;15.60;99.90
9564;DHT22;4820;50.870;4.702;2023-05-07T04:42:16;15.60;99.90
9564;DHT22;4820;50.870;4.702;2023-05-07T04:44:44;15.60;99.90
9564;DHT22;4820;50.870;4.702;2023-05-07T04:47:10;15.60;99.90
9564;DHT22;4820;50.870;4.702;2023-05-07T04:49:37;15.60;99.90
9564;DHT22;4820;50.870;4.702;2023-05-07T04:52:03;15.60;99.90
9564;DHT22;4820;50.870;4.702;2023-05-07T04:54:29;15.60;99.90
9564;DHT22;4820;50.870;4.702;2023-05-07T04:56:55;15.60;99.90
9564;DHT22;4820;50.870;4.702;2023-05-07T04:59:21;15.70;99.90
9564;DHT22;4820;50.870;4.702;2023-05-07T05:01:46;15.70;99.90
9564;DHT22;4820;50.870;4.702;2023-05-07T05:04:12;15.70;99.90
9564;DHT22;4820;50.870;4.702;2023-05-07T05:06:38;15.70;99.90
9564;DHT22;4820;50.870;4.702;2023-05-07T05:09:04;15.60;99.90
9564;DHT22;4820;50.870;4.702;2023-05-07T05:11:31;15.60;99.90
9564;DHT22;4820;50.870;4.702;2023-05-07T05:13:56;15.60;99.90
9564;DHT22;4820;50.870;4.702;2023-05-07T05:16:22;15.60;99.90
9564;DHT22;4820;50.870;4.702;2023-05-07T05:18:48;15.60;99.90
9564;DHT22;4820;50.870;4.702;2023-05-07T05:21:14;15.70;99.90
9564;DHT22;4820;50.870;4.702;2023-05-07T05:23:39;15.60;99.90
9564;DHT22;4820;50.870;4.702;2023-05-07T05:26:05;15.70;99.90
9564;DHT22;4820;50.870;4.702;2023-05-07T05:28:31;15.70;99.90
9564;DHT22;4820;50.870;4.702;2023-05-07T05:30:56;15.70;99.90
9564;DHT22;4820;50.870;4.702;2023-05-07T05:33:22;15.70;99.90
9564;DHT22;4820;50.870;4.702;2023-05-07T05:35:49;15.80;99.90
9564;DHT22;4820;50.870;4.702;2023-05-07T05:38:14;15.80;99.90
9564;DHT22;4820;50.870;4.702;2023-05-07T05:40:40;16.00;99.90
9564;DHT22;4820;50.870;4.702;2023-05-07T05:43:06;16.10;99.90
9564;DHT22;4820;50.870;4.702;2023-05-07T05:45:31;16.10;99.90
9564;DHT22;4820;50.870;4.702;2023-05-07T05:47:57;16.10;99.90
9564;DHT22;4820;50.870;4.702;2023-05-07T05:50:23;16.20;99.90
9564;DHT22;4820;50.870;4.702;2023-05-07T05:52:48;16.20;99.90
9564;DHT22;4820;50.870;4.702;2023-05-07T05:55:14;16.30;99.90
9564;DHT22;4820;50.870;4.702;2023-05-07T05:57:40;16.30;99.90
9564;DHT22;4820;50.870;4.702;2023-05-07T06:00:07;16.30;99.90
9564;DHT22;4820;50.870;4.702;2023-05-07T06:02:33;16.40;99.90
9564;DHT22;4820;50.870;4.702;2023-05-07T06:04:59;16.40;99.90
9564;DHT22;4820;50.870;4.702;2023-05-07T06:07:25;16.50;99.90
9564;DHT22;4820;50.870;4.702;2023-05-07T06:09:50;16.50;99.90
9564;DHT22;4820;50.870;4.702;2023-05-07T06:12:16;16.60;99.90
9564;DHT22;4820;50.870;4.702;2023-05-07T06:14:45;16.60;99.90
9564;DHT22;4820;50.870;4.702;2023-05-07T06:17:10;16.60;99.90
9564;DHT22;4820;50.870;4.702;2023-05-07T06:19:36;16.60;99.90
9564;DHT22;4820;50.870;4.702;2023-05-07T06:22:02;16.60;99.90
9564;DHT22;4820;50.870;4.702;2023-05-07T06:24:28;16.60;99.90
9564;DHT22;4820;50.870;4.702;2023-05-07T06:26:54;16.70;99.90
9564;DHT22;4820;50.870;4.702;2023-05-07T06:29:20;16.80;99.90
9564;DHT22;4820;50.870;4.702;2023-05-07T06:31:45;16.90;99.90
9564;DHT22;4820;50.870;4.702;2023-05-07T06:34:11;16.90;99.90
9564;DHT22;4820;50.870;4.702;2023-05-07T06:36:40;16.90;99.90
9564;DHT22;4820;50.870;4.702;2023-05-07T06:39:06;16.90;99.90
9564;DHT22;4820;50.870;4.702;2023-05-07T06:41:32;16.90;99.90
9564;DHT22;4820;50.870;4.702;2023-05-07T06:43:57;16.70;99.90
9564;DHT22;4820;50.870;4.702;2023-05-07T06:46:23;16.60;99.90
9564;DHT22;4820;50.870;4.702;2023-05-07T06:48:49;16.50;99.90
9564;DHT22;4820;50.870;4.702;2023-05-07T06:51:14;16.50;99.90
9564;DHT22;4820;50.870;4.702;2023-05-07T06:53:40;16.40;99.90
9564;DHT22;4820;50.870;4.702;2023-05-07T06:56:06;16.30;99.90
9564;DHT22;4820;50.870;4.702;2023-05-07T06:58:32;16.30;99.90
9564;DHT22;4820;50.870;4.702;2023-05-07T07:00:57;16.30;99.90
9564;DHT22;4820;50.870;4.702;2023-05-07T07:03:23;16.30;99.90
9564;DHT22;4820;50.870;4.702;2023-05-07T07:05:52;16.40;99.90
9564;DHT22;4820;50.870;4.702;2023-05-07T07:08:18;16.40;99.90
9564;DHT22;4820;50.870;4.702;2023-05-07T07:10:46;16.50;99.90
9564;DHT22;4820;50.870;4.702;2023-05-07T07:13:12;16.50;99.90
9564;DHT22;4820;50.870;4.702;2023-05-07T07:15:38;16.60;99.90
9564;DHT22;4820;50.870;4.702;2023-05-07T07:18:04;16.70;99.90
9564;DHT22;4820;50.870;4.702;2023-05-07T07:20:30;16.80;99.90
9564;DHT22;4820;50.870;4.702;2023-05-07T07:22:55;16.90;99.90
9564;DHT22;4820;50.870;4.702;2023-05-07T07:25:21;17.00;99.90
9564;DHT22;4820;50.870;4.702;2023-05-07T07:27:49;17.10;99.90
9564;DHT22;4820;50.870;4.702;2023-05-07T07:30:15;17.20;99.90
9564;DHT22;4820;50.870;4.702;2023-05-07T07:32:41;17.30;99.90
9564;DHT22;4820;50.870;4.702;2023-05-07T07:35:06;17.30;99.90
9564;DHT22;4820;50.870;4.702;2023-05-07T07:37:32;17.40;99.90
9564;DHT22;4820;50.870;4.702;2023-05-07T07:39:58;17.40;99.90
9564;DHT22;4820;50.870;4.702;2023-05-07T07:42:24;17.50;99.90
9564;DHT22;4820;50.870;4.702;2023-05-07T07:44:49;17.60;99.90
9564;DHT22;4820;50.870;4.702;2023-05-07T07:47:15;17.60;99.90
9564;DHT22;4820;50.870;4.702;2023-05-07T07:49:41;17.70;99.90
9564;DHT22;4820;50.870;4.702;2023-05-07T07:52:06;17.70;99.90
9564;DHT22;4820;50.870;4.702;2023-05-07T07:54:32;17.70;99.90
9564;DHT22;4820;50.870;4.702;2023-05-07T07:56:58;17.80;99.90
9564;DHT22;4820;50.870;4.702;2023-05-07T07:59:26;17.90;99.90
9564;DHT22;4820;50.870;4.702;2023-05-07T08:01:51;18.00;99.90
9564;DHT22;4820;50.870;4.702;2023-05-07T08:04:19;18.10;99.90
9564;DHT22;4820;50.870;4.702;2023-05-07T08:06:45;18.10;99.90
9564;DHT22;4820;50.870;4.702;2023-05-07T08:09:11;18.10;99.90
9564;DHT22;4820;50.870;4.702;2023-05-07T08:11:37;18.00;99.90
9564;DHT22;4820;50.870;4.702;2023-05-07T08:14:03;18.10;99.90
9564;DHT22;4820;50.870;4.702;2023-05-07T08:16:28;18.00;99.90
9564;DHT22;4820;50.870;4.702;2023-05-07T08:18:54;18.10;99.90
9564;DHT22;4820;50.870;4.702;2023-05-07T08:21:20;18.20;99.90
9564;DHT22;4820;50.870;4.702;2023-05-07T08:23:46;18.10;99.90
9564;DHT22;4820;50.870;4.702;2023-05-07T08:26:11;18.20;99.90
9564;DHT22;4820;50.870;4.702;2023-05-07T08:28:37;18.20;99.90
9564;DHT22;4820;50.870;4.702;2023-05-07T08:31:03;18.20;99.90
9564;DHT22;4820;50.870;4.702;2023-05-07T08:33:28;18.30;99.90
9564;DHT22;4820;50.870;4.702;2023-05-07T08:35:54;18.30;99.90
9564;DHT22;4820;50.870;4.702;2023-05-07T08:38:20;18.40;99.90
9564;DHT22;4820;50.870;4.702;2023-05-07T08:40:45;18.50;99.90
9564;DHT22;4820;50.870;4.702;2023-05-07T08:43:15;18.50;99.90
9564;DHT22;4820;50.870;4.702;2023-05-07T08:45:45;18.40;99.90
9564;DHT22;4820;50.870;4.702;2023-05-07T08:48:17;18.30;99.90
9564;DHT22;4820;50.870;4.702;2023-05-07T08:50:45;18.30;99.90
9564;DHT22;4820;50.870;4.702;2023-05-07T08:53:11;18.20;99.90
9564;DHT22;4820;50.870;4.702;2023-05-07T08:55:37;18.10;99.90
9564;DHT22;4820;50.870;4.702;2023-05-07T08:58:03;18.00;99.90
9564;DHT22;4820;50.870;4.702;2023-05-07T09:00:29;17.90;99.90
9564;DHT22;4820;50.870;4.702;2023-05-07T09:02:56;17.90;99.90
9564;DHT22;4820;50.870;4.702;2023-05-07T09:05:21;17.80;99.90
9564;DHT22;4820;50.870;4.702;2023-05-07T09:07:47;17.80;99.90
9564;DHT22;4820;50.870;4.702;2023-05-07T09:10:13;17.80;99.90
9564;DHT22;4820;50.870;4.702;2023-05-07T09:12:39;17.80;99.90
9564;DHT22;4820;50.870;4.702;2023-05-07T09:15:06;17.80;99.90
9564;DHT22;4820;50.870;4.702;2023-05-07T09:17:32;17.90;99.90
9564;DHT22;4820;50.870;4.702;2023-05-07T09:20:07;18.00;99.90
9564;DHT22;4820;50.870;4.702;2023-05-07T09:22:33;18.00;99.90
9564;DHT22;4820;50.870;4.702;2023-05-07T09:24:58;18.00;99.90
9564;DHT22;4820;50.870;4.702;2023-05-07T09:27:25;18.00;99.90
9564;DHT22;4820;50.870;4.702;2023-05-07T09:29:51;18.00;99.90
9564;DHT22;4820;50.870;4.702;2023-05-07T09:32:17;18.00;99.90
9564;DHT22;4820;50.870;4.702;2023-05-07T09:34:43;18.00;99.90
9564;DHT22;4820;50.870;4.702;2023-05-07T09:37:08;18.10;99.90
9564;DHT22;4820;50.870;4.702;2023-05-07T09:39:42;18.10;99.90
9564;DHT22;4820;50.870;4.702;2023-05-07T09:42:09;18.20;99.90
9564;DHT22;4820;50.870;4.702;2023-05-07T09:44:35;18.20;99.90
9564;DHT22;4820;50.870;4.702;2023-05-07T09:47:05;18.20;99.90
9564;DHT22;4820;50.870;4.702;2023-05-07T09:49:36;18.20;99.90
9564;DHT22;4820;50.870;4.702;2023-05-07T09:52:05;18.30;99.90
9564;DHT22;4820;50.870;4.702;2023-05-07T09:54:36;18.30;99.90
9564;DHT22;4820;50.870;4.702;2023-05-07T09:57:05;18.30;99.90
9564;DHT22;4820;50.870;4.702;2023-05-07T09:59:32;18.40;99.90
9564;DHT22;4820;50.870;4.702;2023-05-07T10:01:59;18.40;99.90
9564;DHT22;4820;50.870;4.702;2023-05-07T10:04:26;18.50;99.90
9564;DHT22;4820;50.870;4.702;2023-05-07T10:06:52;18.50;99.90
9564;DHT22;4820;50.870;4.702;2023-05-07T10:09:19;18.50;99.90
9564;DHT22;4820;50.870;4.702;2023-05-07T10:11:46;18.40;99.90
9564;DHT22;4820;50.870;4.702;2023-05-07T10:14:14;18.40;99.90
9564;DHT22;4820;50.870;4.702;2023-05-07T10:16:40;18.40;99.90
9564;DHT22;4820;50.870;4.702;2023-05-07T10:19:08;18.40;99.90
9564;DHT22;4820;50.870;4.702;2023-05-07T10:21:37;18.40;99.90
9564;DHT22;4820;50.870;4.702;2023-05-07T10:24:05;18.40;99.90
9564;DHT22;4820;50.870;4.702;2023-05-07T10:26:36;18.40;99.90
9564;DHT22;4820;50.870;4.702;2023-05-07T10:29:18;18.40;99.90
9564;DHT22;4820;50.870;4.702;2023-05-07T10:34:16;18.40;99.90
9564;DHT22;4820;50.870;4.702;2023-05-07T10:36:43;18.40;99.90
9564;DHT22;4820;50.870;4.702;2023-05-07T10:39:09;18.40;99.90
9564;DHT22;4820;50.870;4.702;2023-05-07T10:41:35;18.50;99.90
9564;DHT22;4820;50.870;4.702;2023-05-07T10:44:02;18.50;99.90
9564;DHT22;4820;50.870;4.702;2023-05-07T10:46:28;18.60;99.90
9564;DHT22;4820;50.870;4.702;2023-05-07T10:51:27;18.60;99.90
9564;DHT22;4820;50.870;4.702;2023-05-07T10:56:38;18.50;99.90
9564;DHT22;4820;50.870;4.702;2023-05-07T10:59:29;18.60;99.90
9564;DHT22;4820;50.870;4.702;2023-05-07T11:02:02;18.70;99.90
9564;DHT22;4820;50.870;4.702;2023-05-07T11:04:29;18.60;99.90
9564;DHT22;4820;50.870;4.702;2023-05-07T11:15:06;18.60;99.90
9564;DHT22;4820;50.870;4.702;2023-05-07T11:17:33;18.60;99.90
9564;DHT22;4820;50.870;4.702;2023-05-07T11:20:01;18.50;99.90
9564;DHT22;4820;50.870;4.702;2023-05-07T11:24:59;18.60;99.90
9564;DHT22;4820;50.870;4.702;2023-05-07T11:27:29;18.70;99.90
9564;DHT22;4820;50.870;4.702;2023-05-07T11:29:55;18.70;99.90
9564;DHT22;4820;50.870;4.702;2023-05-07T11:32:31;18.80;99.90
9564;DHT22;4820;50.870;4.702;2023-05-07T11:34:58;18.90;99.90
9564;DHT22;4820;50.870;4.702;2023-05-07T11:37:25;18.90;99.90
9564;DHT22;4820;50.870;4.702;2023-05-07T11:40:05;18.90;99.90
9564;DHT22;4820;50.870;4.702;2023-05-07T11:42:36;19.00;99.90
9564;DHT22;4820;50.870;4.702;2023-05-07T11:45:03;19.10;99.90
9564;DHT22;4820;50.870;4.702;2023-05-07T11:47:33;19.10;99.90
9564;DHT22;4820;50.870;4.702;2023-05-07T11:50:03;19.20;99.90
9564;DHT22;4820;50.870;4.702;2023-05-07T11:52:30;19.20;99.90
9564;DHT22;4820;50.870;4.702;2023-05-07T11:54:57;19.30;99.90
9564;DHT22;4820;50.870;4.702;2023-05-07T11:57:27;19.50;99.90
9564;DHT22;4820;50.870;4.702;2023-05-07T11:59:54;19.60;99.90
9564;DHT22;4820;50.870;4.702;2023-05-07T12:02:20;19.60;99.90
9564;DHT22;4820;50.870;4.702;2023-05-07T12:04:45;19.60;99.90
9564;DHT22;4820;50.870;4.702;2023-05-07T12:07:15;19.70;99.90
9564;DHT22;4820;50.870;4.702;2023-05-07T12:09:42;19.90;99.90
9564;DHT22;4820;50.870;4.702;2023-05-07T12:12:07;20.10;99.90
9564;DHT22;4820;50.870;4.702;2023-05-07T12:14:40;20.20;99.90
9564;DHT22;4820;50.870;4.702;2023-05-07T12:17:11;20.30;99.90
9564;DHT22;4820;50.870;4.702;2023-05-07T12:19:40;20.40;99.90
9564;DHT22;4820;50.870;4.702;2023-05-07T12:22:10;20.30;99.90
9564;DHT22;4820;50.870;4.702;2023-05-07T12:24:49;20.40;99.90
9564;DHT22;4820;50.870;4.702;2023-05-07T12:27:16;20.50;99.90
9564;DHT22;4820;50.870;4.702;2023-05-07T12:29:50;20.50;99.90
9564;DHT22;4820;50.870;4.702;2023-05-07T12:32:22;20.40;99.90
9564;DHT22;4820;50.870;4.702;2023-05-07T12:34:51;20.40;99.90
9564;DHT22;4820;50.870;4.702;2023-05-07T12:37:23;20.40;99.90
9564;DHT22;4820;50.870;4.702;2023-05-07T12:40:09;20.30;99.90
9564;DHT22;4820;50.870;4.702;2023-05-07T12:42:36;20.20;99.90
9564;DHT22;4820;50.870;4.702;2023-05-07T12:45:15;20.20;99.90
9564;DHT22;4820;50.870;4.702;2023-05-07T12:47:45;20.10;99.90
9564;DHT22;4820;50.870;4.702;2023-05-07T12:50:11;20.10;99.90
9564;DHT22;4820;50.870;4.702;2023-05-07T12:52:37;20.00;99.90
9564;DHT22;4820;50.870;4.702;2023-05-07T12:55:07;20.10;99.90
9564;DHT22;4820;50.870;4.702;2023-05-07T12:57:43;20.00;99.90
9564;DHT22;4820;50.870;4.702;2023-05-07T13:00:09;20.00;99.90
9564;DHT22;4820;50.870;4.702;2023-05-07T13:02:40;20.00;99.90
9564;DHT22;4820;50.870;4.702;2023-05-07T13:05:07;20.00;99.90
9564;DHT22;4820;50.870;4.702;2023-05-07T13:07:33;20.10;99.90
9564;DHT22;4820;50.870;4.702;2023-05-07T13:09:59;20.10;99.90
9564;DHT22;4820;50.870;4.702;2023-05-07T13:12:25;20.00;99.90
9564;DHT22;4820;50.870;4.702;2023-05-07T13:14:51;20.00;99.90
9564;DHT22;4820;50.870;4.702;2023-05-07T13:17:16;20.00;99.90
9564;DHT22;4820;50.870;4.702;2023-05-07T13:19:43;20.00;99.90
9564;DHT22;4820;50.870;4.702;2023-05-07T13:22:09;20.10;99.90
9564;DHT22;4820;50.870;4.702;2023-05-07T13:24:36;20.10;99.90
9564;DHT22;4820;50.870;4.702;2023-05-07T13:27:01;20.20;99.90
9564;DHT22;4820;50.870;4.702;2023-05-07T13:29:28;20.20;99.90
9564;DHT22;4820;50.870;4.702;2023-05-07T13:31:59;20.10;99.90
9564;DHT22;4820;50.870;4.702;2023-05-07T13:34:25;20.10;99.90
9564;DHT22;4820;50.870;4.702;2023-05-07T13:36:52;20.10;99.90
9564;DHT22;4820;50.870;4.702;2023-05-07T13:39:17;20.20;99.90
9564;DHT22;4820;50.870;4.702;2023-05-07T13:41:43;20.20;99.90
9564;DHT22;4820;50.870;4.702;2023-05-07T13:44:09;20.20;99.90
9564;DHT22;4820;50.870;4.702;2023-05-07T13:46:35;20.20;99.90
9564;DHT22;4820;50.870;4.702;2023-05-07T13:49:01;20.20;99.90
9564;DHT22;4820;50.870;4.702;2023-05-07T13:51:27;20.20;99.90
9564;DHT22;4820;50.870;4.702;2023-05-07T13:53:52;20.10;99.90
9564;DHT22;4820;50.870;4.702;2023-05-07T13:56:19;20.10;99.90
9564;DHT22;4820;50.870;4.702;2023-05-07T13:58:46;20.00;99.90
9564;DHT22;4820;50.870;4.702;2023-05-07T14:01:12;20.00;99.90
9564;DHT22;4820;50.870;4.702;2023-05-07T14:03:37;19.90;99.90
9564;DHT22;4820;50.870;4.702;2023-05-07T14:06:05;19.80;99.90
9564;DHT22;4820;50.870;4.702;2023-05-07T14:08:30;19.90;99.90
9564;DHT22;4820;50.870;4.702;2023-05-07T14:10:56;19.90;99.90
9564;DHT22;4820;50.870;4.702;2023-05-07T14:13:22;20.00;99.90
9564;DHT22;4820;50.870;4.702;2023-05-07T14:15:47;20.00;99.90
9564;DHT22;4820;50.870;4.702;2023-05-07T14:18:15;20.10;99.90
9564;DHT22;4820;50.870;4.702;2023-05-07T14:20:41;20.10;99.90
9564;DHT22;4820;50.870;4.702;2023-05-07T14:23:08;20.10;99.90
9564;DHT22;4820;50.870;4.702;2023-05-07T14:25:35;20.10;99.90
9564;DHT22;4820;50.870;4.702;2023-05-07T14:28:00;20.10;99.90
9564;DHT22;4820;50.870;4.702;2023-05-07T14:30:26;20.00;99.90
9564;DHT22;4820;50.870;4.702;2023-05-07T14:32:52;20.00;99.90
9564;DHT22;4820;50.870;4.702;2023-05-07T14:35:17;20.00;99.90
9564;DHT22;4820;50.870;4.702;2023-05-07T14:37:43;20.00;99.90
9564;DHT22;4820;50.870;4.702;2023-05-07T14:40:09;20.10;99.90
9564;DHT22;4820;50.870;4.702;2023-05-07T14:42:35;20.10;99.90
9564;DHT22;4820;50.870;4.702;2023-05-07T14:45:02;20.10;99.90
9564;DHT22;4820;50.870;4.702;2023-05-07T14:47:27;20.10;99.90
9564;DHT22;4820;50.870;4.702;2023-05-07T14:49:53;20.20;99.90
9564;DHT22;4820;50.870;4.702;2023-05-07T14:52:20;20.10;99.90
9564;DHT22;4820;50.870;4.702;2023-05-07T14:54:45;20.10;99.90
9564;DHT22;4820;50.870;4.702;2023-05-07T14:57:12;20.10;99.90
9564;DHT22;4820;50.870;4.702;2023-05-07T14:59:40;20.10;99.90
9564;DHT22;4820;50.870;4.702;2023-05-07T15:02:06;20.00;99.90
9564;DHT22;4820;50.870;4.702;2023-05-07T15:04:34;20.10;99.90
9564;DHT22;4820;50.870;4.702;2023-05-07T15:07:00;20.00;99.90
9564;DHT22;4820;50.870;4.702;2023-05-07T15:09:26;19.90;99.90
9564;DHT22;4820;50.870;4.702;2023-05-07T15:11:51;20.00;99.90
9564;DHT22;4820;50.870;4.702;2023-05-07T15:14:17;20.00;99.90
9564;DHT22;4820;50.870;4.702;2023-05-07T15:16:43;20.00;99.90
9564;DHT22;4820;50.870;4.702;2023-05-07T15:19:09;19.80;99.90
9564;DHT22;4820;50.870;4.702;2023-05-07T15:21:35;19.70;99.90
9564;DHT22;4820;50.870;4.702;2023-05-07T15:24:02;19.70;99.90
9564;DHT22;4820;50.870;4.702;2023-05-07T15:26:27;19.80;99.90
9564;DHT22;4820;50.870;4.702;2023-05-07T15:28:53;19.80;99.90
9564;DHT22;4820;50.870;4.702;2023-05-07T15:31:21;19.80;99.90
9564;DHT22;4820;50.870;4.702;2023-05-07T15:33:47;19.80;99.90
9564;DHT22;4820;50.870;4.702;2023-05-07T15:36:13;19.80;99.90
9564;DHT22;4820;50.870;4.702;2023-05-07T15:38:39;19.80;99.90
9564;DHT22;4820;50.870;4.702;2023-05-07T15:41:05;19.80;99.90
9564;DHT22;4820;50.870;4.702;2023-05-07T15:43:31;19.80;99.90
9564;DHT22;4820;50.870;4.702;2023-05-07T15:45:57;19.70;99.90
9564;DHT22;4820;50.870;4.702;2023-05-07T15:48:22;19.70;99.90
9564;DHT22;4820;50.870;4.702;2023-05-07T15:50:48;19.70;99.90
9564;DHT22;4820;50.870;4.702;2023-05-07T15:53:14;19.60;99.90
9564;DHT22;4820;50.870;4.702;2023-05-07T15:55:42;19.50;99.90
9564;DHT22;4820;50.870;4.702;2023-05-07T15:58:08;19.50;99.90
9564;DHT22;4820;50.870;4.702;2023-05-07T16:00:34;19.40;99.90
9564;DHT22;4820;50.870;4.702;2023-05-07T16:03:01;19.40;99.90
9564;DHT22;4820;50.870;4.702;2023-05-07T16:05:27;19.40;99.90
9564;DHT22;4820;50.870;4.702;2023-05-07T16:07:53;19.50;99.90
9564;DHT22;4820;50.870;4.702;2023-05-07T16:10:19;19.50;99.90
9564;DHT22;4820;50.870;4.702;2023-05-07T16:12:45;19.50;99.90
9564;DHT22;4820;50.870;4.702;2023-05-07T16:15:10;19.50;99.90
9564;DHT22;4820;50.870;4.702;2023-05-07T16:17:36;19.50;99.90